Sunburst, Montana
Current Conditions -  °F | °C
As of 6:56 PM on Monday 20 Oct 2014 (Local Time) from KCTB Reporting Station
Clear Clear  
Wind Chill: 15°   Ceiling: Unl
Heat Index: 15°   Visibility: 10mi
Dew Point: -2°   Wind: 8mph
Humidity: 32%   Direction: 290°WNW
Pressure: 29.73"   Gusts: NA
Location:  48.88°N, 111.91°W
Report Text: KCTB 210056Z AUTO 29007KT 10SM CLR 15/M02 A2973 RMK AO2 SLP064 T01501017
Loading
Personal Weather Stations






























Interactive Weather Map
Tropical Storm Tracking
New forecast layout! Learn more

10-Day Weather Forecast

Advertisements
Track Severe Weather on mobile